LS Concorde — ZDHJ7 — position and weather

sailwx.info

Track history (hours):
 
Tides and Currents Weather Stations Pressure Air Temp Water Temp Dewpoint Dewpoint Depression Visibility Wind Speed Wind Dir Waves Ship Positions

LS Concorde

Last reported at 2015-Sep-03 04:33 UTC. Time now 2015-Sep-03 04:38 UTC.
Position N 51°31' E 001°26'.

Length 99 m; draft 5.6 m.

Type: Tanker. MMSI: 236329000.

Date/timePositionNaut miles runAvg speedWind from/ knotsBaromVisibWave heightAir tempDewpointWater temp
2015-Sep-03 04:33N 51°31' E 001°26'2 1.7
2015-Sep-03 03:33N 51°32' E 001°28'1 0.6
2015-Sep-03 02:34N 51°31' E 001°29'1 0.5
2015-Sep-03 01:32N 51°31' E 001°30'0 0.1
2015-Sep-03 00:32N 51°31' E 001°30'1 0.6
2015-Sep-02 23:32N 51°30' E 001°29'0 0.0
2015-Sep-02 22:32N 51°30' E 001°29'0 0.1
2015-Sep-02 21:32N 51°30' E 001°29'0 0.1
2015-Sep-02 20:26N 51°30' E 001°29'0 0.0
2015-Sep-02 19:20N 51°30' E 001°29'0 0.0
2015-Sep-02 18:33N 51°31' E 001°29'5 5.5
2015-Sep-02 17:33N 51°25' E 001°33'9 9.0
2015-Sep-02 16:33N 51°17' E 001°36'5 5.3
2015-Sep-02 15:33N 51°12' E 001°34'7 7.0
2015-Sep-02 14:33N 51°08' E 001°25'4 3.1
2015-Sep-02 13:19N 51°07' E 001°19'0 0.0
2015-Sep-02 12:31N 51°07' E 001°19'0 0.0
2015-Sep-02 11:31N 51°07' E 001°19'0 0.0
2015-Sep-02 10:25N 51°07' E 001°19'0 0.0
2015-Sep-02 09:33N 51°07' E 001°19'9 9.1
2015-Sep-02 08:34N 51°10' E 001°32'1212.1
2015-Sep-02 07:33N 51°22' E 001°34'10 9.8
2015-Sep-02 06:33N 51°32' E 001°32'0 0.1
2015-Sep-02 05:32N 51°32' E 001°32'0 0.1
2015-Sep-02 04:32N 51°32' E 001°32'3 2.7
2015-Sep-02 03:34N 51°30' E 001°29'0 0.3
2015-Sep-02 02:32N 51°30' E 001°28'0 0.0
2015-Sep-02 01:32N 51°30' E 001°28'0 0.0
2015-Sep-02 00:32N 51°30' E 001°28'0 0.1
2015-Sep-01 23:32N 51°30' E 001°28'0 0.0
2015-Sep-01 22:32N 51°30' E 001°28'0 0.0
2015-Sep-01 21:32N 51°30' E 001°28'0 0.0
2015-Sep-01 20:32N 51°30' E 001°28'0 0.1
2015-Sep-01 19:32N 51°30' E 001°28'0 0.0
2015-Sep-01 18:32N 51°30' E 001°28'0 0.0
2015-Sep-01 17:29N 51°30' E 001°28'0 0.0
2015-Sep-01 16:32N 51°30' E 001°28'0 0.0
2015-Sep-01 15:32N 51°30' E 001°28'0 0.0
2015-Sep-01 14:32N 51°30' E 001°28'0 0.0
2015-Sep-01 13:32N 51°30' E 001°28'0 0.0
2015-Sep-01 12:32N 51°30' E 001°28'0 0.0
2015-Sep-01 11:32N 51°30' E 001°28'0 0.0
2015-Sep-01 10:32N 51°30' E 001°28'0 0.0
2015-Sep-01 09:32N 51°30' E 001°28'2 1.7
2015-Sep-01 08:31N 51°32' E 001°29'0 0.1
2015-Sep-01 07:33N 51°32' E 001°29'1 0.8
2015-Sep-01 06:33N 51°31' E 001°30'6 6.1
2015-Sep-01 05:33N 51°25' E 001°33'6 5.6
2015-Sep-01 04:33N 51°20' E 001°36'5 4.9
2015-Sep-01 03:33N 51°15' E 001°37'6 5.7
2015-Sep-01 02:34N 51°10' E 001°37'9 8.6
2015-Sep-01 01:33N 51°03' E 001°46'7 7.0
2015-Sep-01 00:33N 51°02' E 001°57'7 7.3
2015-Aug-31 23:33N 51°03' E 002°08'3 2.8
2015-Aug-31 22:31N 51°01' E 002°11'0 0.0
2015-Aug-31 21:25N 51°01' E 002°11'0 0.0
2015-Aug-31 20:19N 51°01' E 002°11'0 0.0
2015-Aug-31 19:13N 51°01' E 002°11'0 0.0
2015-Aug-31 16:09N 51°01' E 002°11'2 2.7
2015-Aug-31 15:33N 51°02' E 002°10'1111.0
2015-Aug-31 14:33N 51°02' E 001°53'6 5.8
2015-Aug-31 13:33N 51°04' E 001°44'9 9.1
2015-Aug-31 12:33N 51°10' E 001°34'8 8.3
2015-Aug-31 11:34N 51°19' E 001°36'10 9.8
2015-Aug-31 10:33N 51°27' E 001°29'3 2.7
2015-Aug-31 09:33N 51°30' E 001°27'8 8.2
2015-Aug-31 08:33N 51°29' E 001°14'9 9.1
2015-Aug-31 07:33N 51°29' E 000°60'1110.8
2015-Aug-31 06:33N 51°30' E 000°43'6 5.6
2015-Aug-31 05:31N 51°31' E 000°33'0 0.0
2015-Aug-31 04:31N 51°31' E 000°33'0 0.0
2015-Aug-31 03:31N 51°31' E 000°33'0 0.0
2015-Aug-31 02:31N 51°31' E 000°33'0 0.0
2015-Aug-31 01:31N 51°31' E 000°33'0 0.0
2015-Aug-31 00:31N 51°31' E 000°33'0 0.0
2015-Aug-30 23:31N 51°31' E 000°33'0 0.0
2015-Aug-30 22:31N 51°31' E 000°33'0 0.0
2015-Aug-30 21:31N 51°31' E 000°33'0 0.1
2015-Aug-30 20:34N 51°31' E 000°33'0 0.1
2015-Aug-30 19:34N 51°31' E 000°33'0 0.0
2015-Aug-30 18:34N 51°31' E 000°33'0 0.0
2015-Aug-30 17:34N 51°31' E 000°33'0 0.0
2015-Aug-30 16:34N 51°31' E 000°33'0 0.0
2015-Aug-30 15:34N 51°31' E 000°33'0 0.0
2015-Aug-30 14:34N 51°31' E 000°33'5 5.3
2015-Aug-30 13:34N 51°30' E 000°42'10 9.7
2015-Aug-30 12:34N 51°29' E 000°57'1111.1
2015-Aug-30 11:34N 51°29' E 001°15'1110.8
2015-Aug-30 10:34N 51°25' E 001°31'9 8.9
2015-Aug-30 09:34N 51°17' E 001°36'6 6.2
2015-Aug-30 08:34N 51°11' E 001°33'6 6.1
2015-Aug-30 07:33N 51°08' E 001°25'3 2.6
2015-Aug-30 06:28N 51°08' E 001°20'0 0.0
2015-Aug-30 05:22N 51°08' E 001°20'0 0.0
2015-Aug-30 04:25N 51°08' E 001°20'0 0.1
2015-Aug-30 03:32N 51°08' E 001°20'0 0.0
2015-Aug-30 02:23N 51°08' E 001°20'0 0.0
2015-Aug-30 01:30N 51°08' E 001°20'0 0.0
2015-Aug-30 00:32N 51°08' E 001°20'0 0.0
2015-Aug-29 23:29N 51°08' E 001°20'0 0.0
2015-Aug-29 21:24N 51°08' E 001°21'1 1.1
2015-Aug-29 20:33N 51°08' E 001°22'4 4.3
2015-Aug-29 19:33N 51°08' E 001°29'1211.7
2015-Aug-29 18:33N 51°19' E 001°36'1110.8
2015-Aug-29 17:33N 51°28' E 001°25'1111.2
2015-Aug-29 16:34N 51°29' E 001°08'1111.1
2015-Aug-29 15:33N 51°29' E 000°50'1212.4
2015-Aug-29 14:34N 51°30' E 000°30'6 6.0
2015-Aug-29 13:33N 51°27' E 000°22'0 0.0
2015-Aug-29 12:34N 51°27' E 000°22'0 0.0
2015-Aug-29 11:34N 51°27' E 000°22'0 0.0
2015-Aug-29 10:34N 51°27' E 000°22'0 0.0
2015-Aug-29 09:34N 51°27' E 000°22'0 0.1
2015-Aug-29 08:34N 51°27' E 000°22'6 6.2
2015-Aug-29 07:34N 51°30' E 000°30'10 9.7
2015-Aug-29 06:33N 51°30' E 000°46'8 7.7
2015-Aug-29 05:33N 51°29' E 000°58'8 7.9
2015-Aug-29 04:33N 51°29' E 001°11'7 7.3
2015-Aug-29 03:33N 51°29' E 001°23'7 7.4
2015-Aug-29 02:33N 51°31' E 001°34'7 7.3
2015-Aug-29 01:33N 51°37' E 001°42'4 3.8
2015-Aug-29 00:33N 51°40' E 001°44'4 4.0
2015-Aug-28 23:33N 51°44' E 001°44'5 4.8
2015-Aug-28 22:33N 51°49' E 001°43'34 5.7
2015-Aug-28 16:32N 52°24' E 001°50'8 8.0
2015-Aug-28 15:33N 52°31' E 001°52'7 7.0
2015-Aug-28 14:33N 52°38' E 001°52'7 6.5
2015-Aug-28 13:33N 52°45' E 001°49'6 5.9
2015-Aug-28 12:34N 52°50' E 001°45'7 6.6
2015-Aug-28 11:33N 52°54' E 001°37'7 7.0
2015-Aug-28 10:33N 52°59' E 001°28'8 7.9
2015-Aug-28 09:33N 53°04' E 001°18'8 8.4
2015-Aug-28 08:33N 53°12' E 001°14'11 8.7
2015-Aug-28 07:20N 53°22' E 001°07'21 9.4
2015-Aug-28 05:04N 53°35' E 000°39'5 9.8
2015-Aug-28 04:32N 53°38' E 000°32'10 9.9
2015-Aug-28 03:33N 53°47' E 000°24'1010.0
2015-Aug-28 02:33N 53°55' E 000°15'1010.3
2015-Aug-28 01:33N 54°04' E 000°06'1010.2
2015-Aug-28 00:33N 54°13' W 000°04'9 9.3
2015-Aug-27 23:33N 54°20' W 000°13'9 8.6
2015-Aug-27 22:33N 54°27' W 000°22'8 8.1
2015-Aug-27 21:33N 54°33' W 000°31'8 7.9
2015-Aug-27 20:33N 54°38' W 000°42'8 8.1
2015-Aug-27 19:33N 54°43' W 000°53'8 8.3
2015-Aug-27 18:33N 54°49' W 001°02'10 8.8
2015-Aug-27 17:26N 54°57' W 001°13'5 0.5
2015-Aug-27 07:31N 55°01' W 001°18'1010.5
2015-Aug-27 06:33N 54°53' W 001°07'1110.4
2015-Aug-27 05:32N 54°45' W 000°55'1010.2
2015-Aug-27 04:32N 54°38' W 000°42'9 9.5
2015-Aug-27 03:33N 54°32' W 000°29'9 9.1
2015-Aug-27 02:33N 54°25' W 000°20'9 9.0
2015-Aug-27 01:33N 54°18' W 000°11'9 8.9
2015-Aug-27 00:33N 54°11' W 000°02'9 8.9
2015-Aug-26 23:33N 54°03' E 000°07'10 9.9
2015-Aug-26 22:33N 53°55' E 000°16'1010.1
2015-Aug-26 21:33N 53°47' E 000°26'1111.0
2015-Aug-26 20:33N 53°37' E 000°34'1510.6
2015-Aug-26 19:08N 53°28' E 000°55'710.1
2015-Aug-26 18:24N 53°24' E 001°05'17 9.0
2015-Aug-26 16:33N 53°09' E 001°18'9 8.5
2015-Aug-26 15:33N 53°02' E 001°25'9 8.6
2015-Aug-26 14:33N 52°56' E 001°36'10 9.9
2015-Aug-26 13:33N 52°49' E 001°49'1110.5
2015-Aug-26 12:33N 52°40' E 001°56'1212.1
2015-Aug-26 11:33N 52°28' E 001°52'1312.0
2015-Aug-26 10:30N 52°16' E 001°47'1111.8
2015-Aug-26 09:33N 52°05' E 001°43'1111.4
2015-Aug-26 08:33N 51°54' E 001°37'10 9.8
2015-Aug-26 07:33N 51°46' E 001°28'9 9.4
2015-Aug-26 06:33N 51°40' E 001°17'9 8.8
2015-Aug-26 05:33N 51°34' E 001°07'9 8.7
2015-Aug-26 04:33N 51°30' E 000°54'10 9.6
2015-Aug-26 03:33N 51°30' E 000°38'3 3.3
2015-Aug-26 02:33N 51°31' E 000°33'0 0.0
2015-Aug-26 01:33N 51°31' E 000°33'0 0.0
2015-Aug-26 00:33N 51°31' E 000°33'0 0.0
2015-Aug-25 23:33N 51°31' E 000°33'0 0.0
2015-Aug-25 22:33N 51°31' E 000°33'0 0.0
2015-Aug-25 21:33N 51°31' E 000°33'0 0.0
2015-Aug-25 20:33N 51°31' E 000°33'0 0.0
2015-Aug-25 19:33N 51°31' E 000°33'0 0.0
2015-Aug-25 18:33N 51°31' E 000°33'0 0.0
2015-Aug-25 17:33N 51°31' E 000°33'0 0.0
2015-Aug-25 16:33N 51°31' E 000°33'0 0.0
2015-Aug-25 15:33N 51°31' E 000°33'3 3.1
2015-Aug-25 14:33N 51°30' E 000°38'10 9.7
2015-Aug-25 13:33N 51°29' E 000°54'9 8.9
2015-Aug-25 12:33N 51°29' E 001°08'9 8.8
2015-Aug-25 11:33N 51°29' E 001°22'9 8.9
2015-Aug-25 10:34N 51°23' E 001°33'1110.6
2015-Aug-25 09:33N 51°13' E 001°35'1110.6
2015-Aug-25 08:33N 51°07' E 001°20'1 0.5
2015-Aug-25 07:24N 51°07' E 001°19'0 0.0
2015-Aug-25 06:33N 51°07' E 001°19'0 0.0
2015-Aug-25 05:30N 51°07' E 001°19'1 0.6
2015-Aug-25 04:33N 51°07' E 001°20'5 4.8
2015-Aug-25 03:34N 51°10' E 001°26'1 0.8
2015-Aug-25 02:33N 51°11' E 001°26'0 0.0
2015-Aug-25 01:33N 51°11' E 001°26'0 0.0
2015-Aug-25 00:33N 51°11' E 001°26'0 0.1
2015-Aug-24 23:33N 51°11' E 001°26'0 0.0
2015-Aug-24 22:33N 51°11' E 001°26'0 0.1
2015-Aug-24 21:33N 51°11' E 001°26'6 5.9
2015-Aug-24 20:34N 51°10' E 001°35'6 5.9
2015-Aug-24 19:33N 51°06' E 001°42'8 8.3
2015-Aug-24 18:33N 51°03' E 001°55'8 8.4
2015-Aug-24 17:33N 51°03' E 002°08'8 6.6
2015-Aug-24 16:22N 51°03' E 002°20'2 2.2
2015-Aug-24 15:25N 51°03' E 002°17'0 0.0
2015-Aug-24 14:33N 51°03' E 002°17'0 0.0
2015-Aug-24 13:33N 51°03' E 002°17'0 0.0
2015-Aug-24 12:33N 51°03' E 002°17'0 0.0
2015-Aug-24 11:33N 51°03' E 002°17'0 0.0
2015-Aug-24 10:32N 51°03' E 002°17'2 2.3
2015-Aug-24 09:33N 51°03' E 002°21'3 2.9
2015-Aug-24 08:32N 51°04' E 002°16'1010.2
2015-Aug-24 07:32N 51°02' E 002°00'8 8.1
2015-Aug-24 06:33N 51°03' E 001°47'9 9.0
2015-Aug-24 05:33N 51°09' E 001°37'  
Track history (hours):
 
Tides and Currents Weather Stations Pressure Air Temp Water Temp Dewpoint Dewpoint Depression Visibility Wind Speed Wind Dir Waves Ship Positions

LS Concorde

Last reported at 2015-Sep-03 04:33 UTC. Time now 2015-Sep-03 04:38 UTC.
Position N 51°31' E 001°26'.

Length 99 m; draft 5.6 m.

Type: Tanker. MMSI: 236329000.

Date/timePositionNaut miles runAvg speedWind from/ knotsBaromVisibWave heightAir tempDewpointWater temp
2015-Sep-03 04:33N 51°31' E 001°26'2 1.7
2015-Sep-03 03:33N 51°32' E 001°28'1 0.6
2015-Sep-03 02:34N 51°31' E 001°29'1 0.5
2015-Sep-03 01:32N 51°31' E 001°30'0 0.1
2015-Sep-03 00:32N 51°31' E 001°30'1 0.6
2015-Sep-02 23:32N 51°30' E 001°29'0 0.0
2015-Sep-02 22:32N 51°30' E 001°29'0 0.1
2015-Sep-02 21:32N 51°30' E 001°29'0 0.1
2015-Sep-02 20:26N 51°30' E 001°29'0 0.0
2015-Sep-02 19:20N 51°30' E 001°29'0 0.0
2015-Sep-02 18:33N 51°31' E 001°29'5 5.5
2015-Sep-02 17:33N 51°25' E 001°33'9 9.0
2015-Sep-02 16:33N 51°17' E 001°36'5 5.3
2015-Sep-02 15:33N 51°12' E 001°34'7 7.0
2015-Sep-02 14:33N 51°08' E 001°25'4 3.1
2015-Sep-02 13:19N 51°07' E 001°19'0 0.0
2015-Sep-02 12:31N 51°07' E 001°19'0 0.0
2015-Sep-02 11:31N 51°07' E 001°19'0 0.0
2015-Sep-02 10:25N 51°07' E 001°19'0 0.0
2015-Sep-02 09:33N 51°07' E 001°19'9 9.1
2015-Sep-02 08:34N 51°10' E 001°32'1212.1
2015-Sep-02 07:33N 51°22' E 001°34'10 9.8
2015-Sep-02 06:33N 51°32' E 001°32'0 0.1
2015-Sep-02 05:32N 51°32' E 001°32'0 0.1
2015-Sep-02 04:32N 51°32' E 001°32'3 2.7
2015-Sep-02 03:34N 51°30' E 001°29'0 0.3
2015-Sep-02 02:32N 51°30' E 001°28'0 0.0
2015-Sep-02 01:32N 51°30' E 001°28'0 0.0
2015-Sep-02 00:32N 51°30' E 001°28'0 0.1
2015-Sep-01 23:32N 51°30' E 001°28'0 0.0
2015-Sep-01 22:32N 51°30' E 001°28'0 0.0
2015-Sep-01 21:32N 51°30' E 001°28'0 0.0
2015-Sep-01 20:32N 51°30' E 001°28'0 0.1
2015-Sep-01 19:32N 51°30' E 001°28'0 0.0
2015-Sep-01 18:32N 51°30' E 001°28'0 0.0
2015-Sep-01 17:29N 51°30' E 001°28'0 0.0
2015-Sep-01 16:32N 51°30' E 001°28'0 0.0
2015-Sep-01 15:32N 51°30' E 001°28'0 0.0
2015-Sep-01 14:32N 51°30' E 001°28'0 0.0
2015-Sep-01 13:32N 51°30' E 001°28'0 0.0
2015-Sep-01 12:32N 51°30' E 001°28'0 0.0
2015-Sep-01 11:32N 51°30' E 001°28'0 0.0
2015-Sep-01 10:32N 51°30' E 001°28'0 0.0
2015-Sep-01 09:32N 51°30' E 001°28'2 1.7
2015-Sep-01 08:31N 51°32' E 001°29'0 0.1
2015-Sep-01 07:33N 51°32' E 001°29'1 0.8
2015-Sep-01 06:33N 51°31' E 001°30'6 6.1
2015-Sep-01 05:33N 51°25' E 001°33'6 5.6
2015-Sep-01 04:33N 51°20' E 001°36'5 4.9
2015-Sep-01 03:33N 51°15' E 001°37'6 5.7
2015-Sep-01 02:34N 51°10' E 001°37'9 8.6
2015-Sep-01 01:33N 51°03' E 001°46'7 7.0
2015-Sep-01 00:33N 51°02' E 001°57'7 7.3
2015-Aug-31 23:33N 51°03' E 002°08'3 2.8
2015-Aug-31 22:31N 51°01' E 002°11'0 0.0
2015-Aug-31 21:25N 51°01' E 002°11'0 0.0
2015-Aug-31 20:19N 51°01' E 002°11'0 0.0
2015-Aug-31 19:13N 51°01' E 002°11'0 0.0
2015-Aug-31 16:09N 51°01' E 002°11'2 2.7
2015-Aug-31 15:33N 51°02' E 002°10'1111.0
2015-Aug-31 14:33N 51°02' E 001°53'6 5.8
2015-Aug-31 13:33N 51°04' E 001°44'9 9.1
2015-Aug-31 12:33N 51°10' E 001°34'8 8.3
2015-Aug-31 11:34N 51°19' E 001°36'10 9.8
2015-Aug-31 10:33N 51°27' E 001°29'3 2.7
2015-Aug-31 09:33N 51°30' E 001°27'8 8.2
2015-Aug-31 08:33N 51°29' E 001°14'9 9.1
2015-Aug-31 07:33N 51°29' E 000°60'1110.8
2015-Aug-31 06:33N 51°30' E 000°43'6 5.6
2015-Aug-31 05:31N 51°31' E 000°33'0 0.0
2015-Aug-31 04:31N 51°31' E 000°33'0 0.0
2015-Aug-31 03:31N 51°31' E 000°33'0 0.0
2015-Aug-31 02:31N 51°31' E 000°33'0 0.0
2015-Aug-31 01:31N 51°31' E 000°33'0 0.0
2015-Aug-31 00:31N 51°31' E 000°33'0 0.0
2015-Aug-30 23:31N 51°31' E 000°33'0 0.0
2015-Aug-30 22:31N 51°31' E 000°33'0 0.0
2015-Aug-30 21:31N 51°31' E 000°33'0 0.1
2015-Aug-30 20:34N 51°31' E 000°33'0 0.1
2015-Aug-30 19:34N 51°31' E 000°33'0 0.0
2015-Aug-30 18:34N 51°31' E 000°33'0 0.0
2015-Aug-30 17:34N 51°31' E 000°33'0 0.0
2015-Aug-30 16:34N 51°31' E 000°33'0 0.0
2015-Aug-30 15:34N 51°31' E 000°33'0 0.0
2015-Aug-30 14:34N 51°31' E 000°33'5 5.3
2015-Aug-30 13:34N 51°30' E 000°42'10 9.7
2015-Aug-30 12:34N 51°29' E 000°57'1111.1
2015-Aug-30 11:34N 51°29' E 001°15'1110.8
2015-Aug-30 10:34N 51°25' E 001°31'9 8.9
2015-Aug-30 09:34N 51°17' E 001°36'6 6.2
2015-Aug-30 08:34N 51°11' E 001°33'6 6.1
2015-Aug-30 07:33N 51°08' E 001°25'3 2.6
2015-Aug-30 06:28N 51°08' E 001°20'0 0.0
2015-Aug-30 05:22N 51°08' E 001°20'0 0.0
2015-Aug-30 04:25N 51°08' E 001°20'0 0.1
2015-Aug-30 03:32N 51°08' E 001°20'0 0.0
2015-Aug-30 02:23N 51°08' E 001°20'0 0.0
2015-Aug-30 01:30N 51°08' E 001°20'0 0.0
2015-Aug-30 00:32N 51°08' E 001°20'0 0.0
2015-Aug-29 23:29N 51°08' E 001°20'0 0.0
2015-Aug-29 21:24N 51°08' E 001°21'1 1.1
2015-Aug-29 20:33N 51°08' E 001°22'4 4.3
2015-Aug-29 19:33N 51°08' E 001°29'1211.7
2015-Aug-29 18:33N 51°19' E 001°36'1110.8
2015-Aug-29 17:33N 51°28' E 001°25'1111.2
2015-Aug-29 16:34N 51°29' E 001°08'1111.1
2015-Aug-29 15:33N 51°29' E 000°50'1212.4
2015-Aug-29 14:34N 51°30' E 000°30'6 6.0
2015-Aug-29 13:33N 51°27' E 000°22'0 0.0
2015-Aug-29 12:34N 51°27' E 000°22'0 0.0
2015-Aug-29 11:34N 51°27' E 000°22'0 0.0
2015-Aug-29 10:34N 51°27' E 000°22'0 0.0
2015-Aug-29 09:34N 51°27' E 000°22'0 0.1
2015-Aug-29 08:34N 51°27' E 000°22'6 6.2
2015-Aug-29 07:34N 51°30' E 000°30'10 9.7
2015-Aug-29 06:33N 51°30' E 000°46'8 7.7
2015-Aug-29 05:33N 51°29' E 000°58'8 7.9
2015-Aug-29 04:33N 51°29' E 001°11'7 7.3
2015-Aug-29 03:33N 51°29' E 001°23'7 7.4
2015-Aug-29 02:33N 51°31' E 001°34'7 7.3
2015-Aug-29 01:33N 51°37' E 001°42'4 3.8
2015-Aug-29 00:33N 51°40' E 001°44'4 4.0
2015-Aug-28 23:33N 51°44' E 001°44'5 4.8
2015-Aug-28 22:33N 51°49' E 001°43'34 5.7
2015-Aug-28 16:32N 52°24' E 001°50'8 8.0
2015-Aug-28 15:33N 52°31' E 001°52'7 7.0
2015-Aug-28 14:33N 52°38' E 001°52'7 6.5
2015-Aug-28 13:33N 52°45' E 001°49'6 5.9
2015-Aug-28 12:34N 52°50' E 001°45'7 6.6
2015-Aug-28 11:33N 52°54' E 001°37'7 7.0
2015-Aug-28 10:33N 52°59' E 001°28'8 7.9
2015-Aug-28 09:33N 53°04' E 001°18'8 8.4
2015-Aug-28 08:33N 53°12' E 001°14'11 8.7
2015-Aug-28 07:20N 53°22' E 001°07'21 9.4
2015-Aug-28 05:04N 53°35' E 000°39'5 9.8
2015-Aug-28 04:32N 53°38' E 000°32'10 9.9
2015-Aug-28 03:33N 53°47' E 000°24'1010.0
2015-Aug-28 02:33N 53°55' E 000°15'1010.3
2015-Aug-28 01:33N 54°04' E 000°06'1010.2
2015-Aug-28 00:33N 54°13' W 000°04'9 9.3
2015-Aug-27 23:33N 54°20' W 000°13'9 8.6
2015-Aug-27 22:33N 54°27' W 000°22'8 8.1
2015-Aug-27 21:33N 54°33' W 000°31'8 7.9
2015-Aug-27 20:33N 54°38' W 000°42'8 8.1
2015-Aug-27 19:33N 54°43' W 000°53'8 8.3
2015-Aug-27 18:33N 54°49' W 001°02'10 8.8
2015-Aug-27 17:26N 54°57' W 001°13'5 0.5
2015-Aug-27 07:31N 55°01' W 001°18'1010.5
2015-Aug-27 06:33N 54°53' W 001°07'1110.4
2015-Aug-27 05:32N 54°45' W 000°55'1010.2
2015-Aug-27 04:32N 54°38' W 000°42'9 9.5
2015-Aug-27 03:33N 54°32' W 000°29'9 9.1
2015-Aug-27 02:33N 54°25' W 000°20'9 9.0
2015-Aug-27 01:33N 54°18' W 000°11'9 8.9
2015-Aug-27 00:33N 54°11' W 000°02'9 8.9
2015-Aug-26 23:33N 54°03' E 000°07'10 9.9
2015-Aug-26 22:33N 53°55' E 000°16'1010.1
2015-Aug-26 21:33N 53°47' E 000°26'1111.0
2015-Aug-26 20:33N 53°37' E 000°34'1510.6
2015-Aug-26 19:08N 53°28' E 000°55'710.1
2015-Aug-26 18:24N 53°24' E 001°05'17 9.0
2015-Aug-26 16:33N 53°09' E 001°18'9 8.5
2015-Aug-26 15:33N 53°02' E 001°25'9 8.6
2015-Aug-26 14:33N 52°56' E 001°36'10 9.9
2015-Aug-26 13:33N 52°49' E 001°49'1110.5
2015-Aug-26 12:33N 52°40' E 001°56'1212.1
2015-Aug-26 11:33N 52°28' E 001°52'1312.0
2015-Aug-26 10:30N 52°16' E 001°47'1111.8
2015-Aug-26 09:33N 52°05' E 001°43'1111.4
2015-Aug-26 08:33N 51°54' E 001°37'10 9.8
2015-Aug-26 07:33N 51°46' E 001°28'9 9.4
2015-Aug-26 06:33N 51°40' E 001°17'9 8.8
2015-Aug-26 05:33N 51°34' E 001°07'9 8.7
2015-Aug-26 04:33N 51°30' E 000°54'10 9.6
2015-Aug-26 03:33N 51°30' E 000°38'3 3.3
2015-Aug-26 02:33N 51°31' E 000°33'0 0.0
2015-Aug-26 01:33N 51°31' E 000°33'0 0.0
2015-Aug-26 00:33N 51°31' E 000°33'0 0.0
2015-Aug-25 23:33N 51°31' E 000°33'0 0.0
2015-Aug-25 22:33N 51°31' E 000°33'0 0.0
2015-Aug-25 21:33N 51°31' E 000°33'0 0.0
2015-Aug-25 20:33N 51°31' E 000°33'0 0.0
2015-Aug-25 19:33N 51°31' E 000°33'0 0.0
2015-Aug-25 18:33N 51°31' E 000°33'0 0.0
2015-Aug-25 17:33N 51°31' E 000°33'0 0.0
2015-Aug-25 16:33N 51°31' E 000°33'0 0.0
2015-Aug-25 15:33N 51°31' E 000°33'3 3.1
2015-Aug-25 14:33N 51°30' E 000°38'10 9.7
2015-Aug-25 13:33N 51°29' E 000°54'9 8.9
2015-Aug-25 12:33N 51°29' E 001°08'9 8.8
2015-Aug-25 11:33N 51°29' E 001°22'9 8.9
2015-Aug-25 10:34N 51°23' E 001°33'1110.6
2015-Aug-25 09:33N 51°13' E 001°35'1110.6
2015-Aug-25 08:33N 51°07' E 001°20'1 0.5
2015-Aug-25 07:24N 51°07' E 001°19'0 0.0
2015-Aug-25 06:33N 51°07' E 001°19'0 0.0
2015-Aug-25 05:30N 51°07' E 001°19'1 0.6
2015-Aug-25 04:33N 51°07' E 001°20'5 4.8
2015-Aug-25 03:34N 51°10' E 001°26'1 0.8
2015-Aug-25 02:33N 51°11' E 001°26'0 0.0
2015-Aug-25 01:33N 51°11' E 001°26'0 0.0
2015-Aug-25 00:33N 51°11' E 001°26'0 0.1
2015-Aug-24 23:33N 51°11' E 001°26'0 0.0
2015-Aug-24 22:33N 51°11' E 001°26'0 0.1
2015-Aug-24 21:33N 51°11' E 001°26'6 5.9
2015-Aug-24 20:34N 51°10' E 001°35'6 5.9
2015-Aug-24 19:33N 51°06' E 001°42'8 8.3
2015-Aug-24 18:33N 51°03' E 001°55'8 8.4
2015-Aug-24 17:33N 51°03' E 002°08'8 6.6
2015-Aug-24 16:22N 51°03' E 002°20'2 2.2
2015-Aug-24 15:25N 51°03' E 002°17'0 0.0
2015-Aug-24 14:33N 51°03' E 002°17'0 0.0
2015-Aug-24 13:33N 51°03' E 002°17'0 0.0
2015-Aug-24 12:33N 51°03' E 002°17'0 0.0
2015-Aug-24 11:33N 51°03' E 002°17'0 0.0
2015-Aug-24 10:32N 51°03' E 002°17'2 2.3
2015-Aug-24 09:33N 51°03' E 002°21'3 2.9
2015-Aug-24 08:32N 51°04' E 002°16'1010.2
2015-Aug-24 07:32N 51°02' E 002°00'8 8.1
2015-Aug-24 06:33N 51°03' E 001°47'9 9.0
2015-Aug-24 05:33N 51°09' E 001°37'  

Dump ship's entire track history